Airport details for: EHGG (Netherlands)

Metar

EHGG 111255Z AUTO 07010KT 9999 FEW010/// OVC047/// M00/M02 Q0983 R05/990195 BECMG 6000 -SN

General details

ICAO: EHGG
IATA: GRQ
Name (city): Eelde
Major:
Country: Netherlands
vACC: Dutch VACC
Description:
Scenery links:
FS9 scenery: Download
FSX/P3D scenery: Download
XP scenery:
Elevation: 18 ft.
Transition altitude: 3000 ft.
MSA: 8200 ft.
Latitude: 53.125
Longitude: 6.583333
EHGG Charts
EHGG Notams
EHGG Online stations

Runways

Number Course Length Elevation Lat Lon ILS ILS freq ILS FAC GP
01 4921ft / 1500 m 17ft 53.117386 6.576858 - - 3.0°
05 51° 8202ft / 2500 m 13ft 53.111083 6.560897 - - 3.0°
19 188° 4921ft / 1500 m 12ft 53.130706 6.58027 - - 3.0°
23 231° 8202ft / 2500 m 13ft 53.124956 6.590267 109.9 231° 3.0°